sensor_id;sensor_type;location;lat;lon;timestamp;temperature;humidity
20370;DHT22;10344;47.592;9.600;2023-05-15T00:01:31;11.70;99.90
20370;DHT22;10344;47.592;9.600;2023-05-15T00:03:57;11.60;99.90
20370;DHT22;10344;47.592;9.600;2023-05-15T00:06:23;11.60;99.90
20370;DHT22;10344;47.592;9.600;2023-05-15T00:08:52;11.50;99.90
20370;DHT22;10344;47.592;9.600;2023-05-15T00:11:18;11.50;99.90
20370;DHT22;10344;47.592;9.600;2023-05-15T00:13:48;11.40;99.90
20370;DHT22;10344;47.592;9.600;2023-05-15T00:16:14;11.40;99.90
20370;DHT22;10344;47.592;9.600;2023-05-15T00:18:39;11.40;99.90
20370;DHT22;10344;47.592;9.600;2023-05-15T00:21:06;11.30;99.90
20370;DHT22;10344;47.592;9.600;2023-05-15T00:23:31;11.40;99.90
20370;DHT22;10344;47.592;9.600;2023-05-15T00:26:00;11.30;99.90
20370;DHT22;10344;47.592;9.600;2023-05-15T00:28:30;11.40;99.90
20370;DHT22;10344;47.592;9.600;2023-05-15T00:30:58;11.30;99.90
20370;DHT22;10344;47.592;9.600;2023-05-15T00:33:28;11.50;99.90
20370;DHT22;10344;47.592;9.600;2023-05-15T00:35:57;11.50;99.90
20370;DHT22;10344;47.592;9.600;2023-05-15T00:38:29;11.50;99.90
20370;DHT22;10344;47.592;9.600;2023-05-15T00:40:55;11.40;99.90
20370;DHT22;10344;47.592;9.600;2023-05-15T00:43:29;11.50;99.90
20370;DHT22;10344;47.592;9.600;2023-05-15T00:45:56;11.50;99.90
20370;DHT22;10344;47.592;9.600;2023-05-15T00:48:23;11.50;99.90
20370;DHT22;10344;47.592;9.600;2023-05-15T00:50:51;11.50;99.90
20370;DHT22;10344;47.592;9.600;2023-05-15T00:53:17;11.50;99.90
20370;DHT22;10344;47.592;9.600;2023-05-15T00:55:51;11.50;99.90
20370;DHT22;10344;47.592;9.600;2023-05-15T00:58:20;11.50;99.90
20370;DHT22;10344;47.592;9.600;2023-05-15T01:00:47;11.50;99.90
20370;DHT22;10344;47.592;9.600;2023-05-15T01:03:17;11.60;99.90
20370;DHT22;10344;47.592;9.600;2023-05-15T01:05:49;11.70;99.90
20370;DHT22;10344;47.592;9.600;2023-05-15T01:10:44;11.60;99.90
20370;DHT22;10344;47.592;9.600;2023-05-15T01:13:15;11.60;99.90
20370;DHT22;10344;47.592;9.600;2023-05-15T01:15:43;11.60;99.90
20370;DHT22;10344;47.592;9.600;2023-05-15T01:18:11;11.50;99.90
20370;DHT22;10344;47.592;9.600;2023-05-15T01:21:00;11.50;99.90
20370;DHT22;10344;47.592;9.600;2023-05-15T01:29:40;11.50;99.90
20370;DHT22;10344;47.592;9.600;2023-05-15T01:32:18;11.50;99.90
20370;DHT22;10344;47.592;9.600;2023-05-15T01:35:01;11.50;99.90
20370;DHT22;10344;47.592;9.600;2023-05-15T01:37:31;11.50;99.90
20370;DHT22;10344;47.592;9.600;2023-05-15T01:40:01;11.50;99.90
20370;DHT22;10344;47.592;9.600;2023-05-15T01:42:43;11.50;99.90
20370;DHT22;10344;47.592;9.600;2023-05-15T01:45:13;11.50;99.90
20370;DHT22;10344;47.592;9.600;2023-05-15T01:47:43;11.50;99.90
20370;DHT22;10344;47.592;9.600;2023-05-15T01:50:21;11.60;99.90
20370;DHT22;10344;47.592;9.600;2023-05-15T01:52:55;11.50;99.90
20370;DHT22;10344;47.592;9.600;2023-05-15T01:55:22;11.50;99.90
20370;DHT22;10344;47.592;9.600;2023-05-15T01:58:03;11.60;99.90
20370;DHT22;10344;47.592;9.600;2023-05-15T02:00:35;11.60;99.90
20370;DHT22;10344;47.592;9.600;2023-05-15T02:03:08;11.60;99.90
20370;DHT22;10344;47.592;9.600;2023-05-15T02:05:34;11.50;99.90
20370;DHT22;10344;47.592;9.600;2023-05-15T02:08:03;11.60;99.90
20370;DHT22;10344;47.592;9.600;2023-05-15T02:10:32;11.60;99.90
20370;DHT22;10344;47.592;9.600;2023-05-15T02:12:59;11.60;99.90
20370;DHT22;10344;47.592;9.600;2023-05-15T02:15:31;11.60;99.90
20370;DHT22;10344;47.592;9.600;2023-05-15T02:17:59;11.70;99.90
20370;DHT22;10344;47.592;9.600;2023-05-15T02:20:28;11.60;99.90
20370;DHT22;10344;47.592;9.600;2023-05-15T02:22:54;11.70;99.90
20370;DHT22;10344;47.592;9.600;2023-05-15T02:25:33;11.70;99.90
20370;DHT22;10344;47.592;9.600;2023-05-15T02:28:11;11.70;99.90
20370;DHT22;10344;47.592;9.600;2023-05-15T02:30:58;11.80;99.90
20370;DHT22;10344;47.592;9.600;2023-05-15T02:36:11;11.60;99.90
20370;DHT22;10344;47.592;9.600;2023-05-15T02:38:55;11.60;99.90
20370;DHT22;10344;47.592;9.600;2023-05-15T02:41:29;11.60;99.90
20370;DHT22;10344;47.592;9.600;2023-05-15T02:43:56;11.60;99.90
20370;DHT22;10344;47.592;9.600;2023-05-15T02:46:27;11.60;99.90
20370;DHT22;10344;47.592;9.600;2023-05-15T02:48:54;11.50;99.90
20370;DHT22;10344;47.592;9.600;2023-05-15T02:51:20;11.50;99.90
20370;DHT22;10344;47.592;9.600;2023-05-15T02:53:45;11.50;99.90
20370;DHT22;10344;47.592;9.600;2023-05-15T02:56:11;11.50;99.90
20370;DHT22;10344;47.592;9.600;2023-05-15T02:58:37;11.40;99.90
20370;DHT22;10344;47.592;9.600;2023-05-15T03:01:08;11.30;99.90
20370;DHT22;10344;47.592;9.600;2023-05-15T03:03:35;11.30;99.90
20370;DHT22;10344;47.592;9.600;2023-05-15T03:06:01;11.20;99.90
20370;DHT22;10344;47.592;9.600;2023-05-15T03:08:27;11.20;99.90
20370;DHT22;10344;47.592;9.600;2023-05-15T03:10:53;11.10;99.90
20370;DHT22;10344;47.592;9.600;2023-05-15T03:13:20;11.10;99.90
20370;DHT22;10344;47.592;9.600;2023-05-15T03:15:46;11.00;99.90
20370;DHT22;10344;47.592;9.600;2023-05-15T03:18:14;11.00;99.90
20370;DHT22;10344;47.592;9.600;2023-05-15T03:20:48;11.00;99.90
20370;DHT22;10344;47.592;9.600;2023-05-15T03:23:16;11.00;99.90
20370;DHT22;10344;47.592;9.600;2023-05-15T03:25:42;11.00;99.90
20370;DHT22;10344;47.592;9.600;2023-05-15T03:28:08;11.00;99.90
20370;DHT22;10344;47.592;9.600;2023-05-15T03:30:37;11.00;99.90
20370;DHT22;10344;47.592;9.600;2023-05-15T03:33:05;11.10;99.90
20370;DHT22;10344;47.592;9.600;2023-05-15T03:35:34;11.10;99.90
20370;DHT22;10344;47.592;9.600;2023-05-15T03:38:02;11.10;99.90
20370;DHT22;10344;47.592;9.600;2023-05-15T03:40:30;11.00;99.90
20370;DHT22;10344;47.592;9.600;2023-05-15T03:42:59;11.00;99.90
20370;DHT22;10344;47.592;9.600;2023-05-15T03:45:24;10.90;99.90
20370;DHT22;10344;47.592;9.600;2023-05-15T03:47:54;10.80;99.90
20370;DHT22;10344;47.592;9.600;2023-05-15T03:50:20;10.80;99.90
20370;DHT22;10344;47.592;9.600;2023-05-15T03:52:48;10.70;99.90
20370;DHT22;10344;47.592;9.600;2023-05-15T03:55:14;10.70;99.90
20370;DHT22;10344;47.592;9.600;2023-05-15T03:57:48;10.60;99.90
20370;DHT22;10344;47.592;9.600;2023-05-15T04:00:13;10.60;99.90
20370;DHT22;10344;47.592;9.600;2023-05-15T04:02:39;10.60;99.90
20370;DHT22;10344;47.592;9.600;2023-05-15T04:05:11;10.70;99.90
20370;DHT22;10344;47.592;9.600;2023-05-15T04:07:36;10.60;99.90
20370;DHT22;10344;47.592;9.600;2023-05-15T04:10:10;10.70;99.90
20370;DHT22;10344;47.592;9.600;2023-05-15T04:12:36;10.70;99.90
20370;DHT22;10344;47.592;9.600;2023-05-15T04:15:24;10.70;99.90
20370;DHT22;10344;47.592;9.600;2023-05-15T04:17:51;10.80;99.90
20370;DHT22;10344;47.592;9.600;2023-05-15T04:20:21;10.80;99.90
20370;DHT22;10344;47.592;9.600;2023-05-15T04:22:48;10.80;99.90
20370;DHT22;10344;47.592;9.600;2023-05-15T04:25:14;10.90;99.90
20370;DHT22;10344;47.592;9.600;2023-05-15T04:27:44;10.90;99.90
20370;DHT22;10344;47.592;9.600;2023-05-15T04:30:10;10.90;99.90
20370;DHT22;10344;47.592;9.600;2023-05-15T04:32:37;10.90;99.90
20370;DHT22;10344;47.592;9.600;2023-05-15T04:35:06;10.90;99.90
20370;DHT22;10344;47.592;9.600;2023-05-15T04:37:40;11.00;99.90
20370;DHT22;10344;47.592;9.600;2023-05-15T04:40:06;11.10;99.90
20370;DHT22;10344;47.592;9.600;2023-05-15T04:42:35;11.10;99.90
20370;DHT22;10344;47.592;9.600;2023-05-15T04:45:07;11.10;99.90
20370;DHT22;10344;47.592;9.600;2023-05-15T04:47:34;11.10;99.90
20370;DHT22;10344;47.592;9.600;2023-05-15T04:50:02;11.20;99.90
20370;DHT22;10344;47.592;9.600;2023-05-15T04:52:27;11.20;99.90
20370;DHT22;10344;47.592;9.600;2023-05-15T04:55:01;11.20;99.90
20370;DHT22;10344;47.592;9.600;2023-05-15T04:57:29;11.30;99.90
20370;DHT22;10344;47.592;9.600;2023-05-15T04:59:58;11.30;99.90
20370;DHT22;10344;47.592;9.600;2023-05-15T05:02:24;11.40;99.90
20370;DHT22;10344;47.592;9.600;2023-05-15T05:04:50;11.40;99.90
20370;DHT22;10344;47.592;9.600;2023-05-15T05:07:18;11.50;99.90
20370;DHT22;10344;47.592;9.600;2023-05-15T05:09:49;11.60;99.90
20370;DHT22;10344;47.592;9.600;2023-05-15T05:12:15;11.60;99.90
20370;DHT22;10344;47.592;9.600;2023-05-15T05:14:40;11.60;99.90
20370;DHT22;10344;47.592;9.600;2023-05-15T05:17:06;11.70;99.90
20370;DHT22;10344;47.592;9.600;2023-05-15T05:19:38;11.70;99.90
20370;DHT22;10344;47.592;9.600;2023-05-15T05:22:04;11.70;99.90
20370;DHT22;10344;47.592;9.600;2023-05-15T05:24:30;11.70;99.90
20370;DHT22;10344;47.592;9.600;2023-05-15T05:27:05;11.80;99.90
20370;DHT22;10344;47.592;9.600;2023-05-15T05:29:34;11.80;99.90
20370;DHT22;10344;47.592;9.600;2023-05-15T05:32:00;11.80;99.90
20370;DHT22;10344;47.592;9.600;2023-05-15T05:34:26;11.90;99.90
20370;DHT22;10344;47.592;9.600;2023-05-15T05:36:52;12.00;99.90
20370;DHT22;10344;47.592;9.600;2023-05-15T05:39:25;12.00;99.90
20370;DHT22;10344;47.592;9.600;2023-05-15T05:41:50;12.10;99.90
20370;DHT22;10344;47.592;9.600;2023-05-15T05:44:18;12.10;99.90
20370;DHT22;10344;47.592;9.600;2023-05-15T05:46:47;12.10;99.90
20370;DHT22;10344;47.592;9.600;2023-05-15T05:49:15;12.10;99.90
20370;DHT22;10344;47.592;9.600;2023-05-15T05:51:43;12.10;99.90
20370;DHT22;10344;47.592;9.600;2023-05-15T05:54:12;12.20;99.90
20370;DHT22;10344;47.592;9.600;2023-05-15T05:56:40;12.20;99.90
20370;DHT22;10344;47.592;9.600;2023-05-15T05:59:11;12.30;99.90
20370;DHT22;10344;47.592;9.600;2023-05-15T06:01:37;12.20;99.90
20370;DHT22;10344;47.592;9.600;2023-05-15T06:04:03;12.20;99.90
20370;DHT22;10344;47.592;9.600;2023-05-15T06:06:28;12.20;99.90
20370;DHT22;10344;47.592;9.600;2023-05-15T06:08:55;12.10;99.90
20370;DHT22;10344;47.592;9.600;2023-05-15T06:11:26;12.10;99.90
20370;DHT22;10344;47.592;9.600;2023-05-15T06:13:52;12.00;99.90
20370;DHT22;10344;47.592;9.600;2023-05-15T06:16:17;11.90;99.90
20370;DHT22;10344;47.592;9.600;2023-05-15T06:18:50;12.00;99.90
20370;DHT22;10344;47.592;9.600;2023-05-15T06:21:18;11.90;99.90
20370;DHT22;10344;47.592;9.600;2023-05-15T06:23:51;11.90;99.90
20370;DHT22;10344;47.592;9.600;2023-05-15T06:26:22;11.90;99.90
20370;DHT22;10344;47.592;9.600;2023-05-15T06:28:49;11.80;99.90
20370;DHT22;10344;47.592;9.600;2023-05-15T06:31:17;11.80;99.90
20370;DHT22;10344;47.592;9.600;2023-05-15T06:33:48;11.80;99.90
20370;DHT22;10344;47.592;9.600;2023-05-15T06:36:14;11.80;99.90
20370;DHT22;10344;47.592;9.600;2023-05-15T06:38:47;11.80;99.90
20370;DHT22;10344;47.592;9.600;2023-05-15T06:41:14;11.80;99.90
20370;DHT22;10344;47.592;9.600;2023-05-15T06:43:40;11.80;99.90
20370;DHT22;10344;47.592;9.600;2023-05-15T06:46:06;11.80;99.90
20370;DHT22;10344;47.592;9.600;2023-05-15T06:48:40;11.80;99.90
20370;DHT22;10344;47.592;9.600;2023-05-15T06:51:11;11.80;99.90
20370;DHT22;10344;47.592;9.600;2023-05-15T06:53:40;11.80;99.90
20370;DHT22;10344;47.592;9.600;2023-05-15T06:56:07;11.80;99.90
20370;DHT22;10344;47.592;9.600;2023-05-15T06:58:37;11.80;99.90
20370;DHT22;10344;47.592;9.600;2023-05-15T07:01:05;11.80;99.90
20370;DHT22;10344;47.592;9.600;2023-05-15T07:03:38;11.80;99.90
20370;DHT22;10344;47.592;9.600;2023-05-15T07:06:04;11.80;99.90
20370;DHT22;10344;47.592;9.600;2023-05-15T07:08:38;11.80;99.90
20370;DHT22;10344;47.592;9.600;2023-05-15T07:11:06;11.90;99.90
20370;DHT22;10344;47.592;9.600;2023-05-15T07:13:31;12.00;99.90
20370;DHT22;10344;47.592;9.600;2023-05-15T07:16:03;12.00;99.90
20370;DHT22;10344;47.592;9.600;2023-05-15T07:18:29;12.00;99.90
20370;DHT22;10344;47.592;9.600;2023-05-15T07:20:54;12.00;99.90
20370;DHT22;10344;47.592;9.600;2023-05-15T07:23:20;12.00;99.90
20370;DHT22;10344;47.592;9.600;2023-05-15T07:25:48;12.00;99.90
20370;DHT22;10344;47.592;9.600;2023-05-15T07:28:13;12.00;99.90
20370;DHT22;10344;47.592;9.600;2023-05-15T07:30:40;12.00;99.90
20370;DHT22;10344;47.592;9.600;2023-05-15T07:33:08;12.00;99.90
20370;DHT22;10344;47.592;9.600;2023-05-15T07:35:39;12.00;99.90
20370;DHT22;10344;47.592;9.600;2023-05-15T07:38:07;12.00;99.90
20370;DHT22;10344;47.592;9.600;2023-05-15T07:40:38;11.90;99.90
20370;DHT22;10344;47.592;9.600;2023-05-15T07:43:06;11.90;99.90
20370;DHT22;10344;47.592;9.600;2023-05-15T07:45:39;11.90;99.90
20370;DHT22;10344;47.592;9.600;2023-05-15T07:48:18;11.90;99.90
20370;DHT22;10344;47.592;9.600;2023-05-15T07:50:53;12.00;99.90
20370;DHT22;10344;47.592;9.600;2023-05-15T07:53:27;11.90;99.90
20370;DHT22;10344;47.592;9.600;2023-05-15T07:55:52;11.90;99.90
20370;DHT22;10344;47.592;9.600;2023-05-15T07:58:20;11.90;99.90
20370;DHT22;10344;47.592;9.600;2023-05-15T08:00:48;11.90;99.90
20370;DHT22;10344;47.592;9.600;2023-05-15T08:03:17;11.80;99.90
20370;DHT22;10344;47.592;9.600;2023-05-15T08:05:43;11.90;99.90
20370;DHT22;10344;47.592;9.600;2023-05-15T08:08:09;11.90;99.90
20370;DHT22;10344;47.592;9.600;2023-05-15T08:10:37;11.90;99.90
20370;DHT22;10344;47.592;9.600;2023-05-15T08:13:05;11.90;99.90
20370;DHT22;10344;47.592;9.600;2023-05-15T08:15:31;12.00;99.90
20370;DHT22;10344;47.592;9.600;2023-05-15T08:17:57;12.00;99.90
20370;DHT22;10344;47.592;9.600;2023-05-15T08:20:27;12.00;99.90
20370;DHT22;10344;47.592;9.600;2023-05-15T08:22:53;12.10;99.90
20370;DHT22;10344;47.592;9.600;2023-05-15T08:25:21;12.20;99.90
20370;DHT22;10344;47.592;9.600;2023-05-15T08:27:49;12.40;99.90
20370;DHT22;10344;47.592;9.600;2023-05-15T08:30:15;12.40;99.90
20370;DHT22;10344;47.592;9.600;2023-05-15T08:32:43;12.50;99.90
20370;DHT22;10344;47.592;9.600;2023-05-15T08:35:17;12.60;99.90
20370;DHT22;10344;47.592;9.600;2023-05-15T08:37:45;12.80;99.90
20370;DHT22;10344;47.592;9.600;2023-05-15T08:40:14;12.90;99.90
20370;DHT22;10344;47.592;9.600;2023-05-15T08:43:02;13.10;99.90
20370;DHT22;10344;47.592;9.600;2023-05-15T08:45:33;13.20;99.90
20370;DHT22;10344;47.592;9.600;2023-05-15T08:48:17;13.30;99.90
20370;DHT22;10344;47.592;9.600;2023-05-15T08:50:54;13.60;99.90
20370;DHT22;10344;47.592;9.600;2023-05-15T08:53:28;14.00;99.90
20370;DHT22;10344;47.592;9.600;2023-05-15T08:55:56;14.50;99.90
20370;DHT22;10344;47.592;9.600;2023-05-15T08:58:30;15.10;99.90
20370;DHT22;10344;47.592;9.600;2023-05-15T09:00:56;16.10;99.90
20370;DHT22;10344;47.592;9.600;2023-05-15T09:03:23;17.40;99.90
20370;DHT22;10344;47.592;9.600;2023-05-15T09:05:51;17.80;99.90
20370;DHT22;10344;47.592;9.600;2023-05-15T09:08:18;17.60;99.90
20370;DHT22;10344;47.592;9.600;2023-05-15T09:10:46;17.90;99.90
20370;DHT22;10344;47.592;9.600;2023-05-15T09:13:18;18.60;99.90
20370;DHT22;10344;47.592;9.600;2023-05-15T09:15:52;18.80;99.90
20370;DHT22;10344;47.592;9.600;2023-05-15T09:18:18;18.20;99.90
20370;DHT22;10344;47.592;9.600;2023-05-15T09:20:53;17.70;99.90
20370;DHT22;10344;47.592;9.600;2023-05-15T09:23:26;17.00;99.90
20370;DHT22;10344;47.592;9.600;2023-05-15T09:25:52;16.80;99.90
20370;DHT22;10344;47.592;9.600;2023-05-15T09:28:33;16.80;99.90
20370;DHT22;10344;47.592;9.600;2023-05-15T09:31:04;16.80;99.90
20370;DHT22;10344;47.592;9.600;2023-05-15T09:33:35;17.20;99.90
20370;DHT22;10344;47.592;9.600;2023-05-15T09:36:20;18.20;99.90
20370;DHT22;10344;47.592;9.600;2023-05-15T09:38:46;19.30;99.90
20370;DHT22;10344;47.592;9.600;2023-05-15T09:41:26;19.90;99.90
20370;DHT22;10344;47.592;9.600;2023-05-15T09:43:53;20.20;99.90
20370;DHT22;10344;47.592;9.600;2023-05-15T09:46:21;20.10;99.90
20370;DHT22;10344;47.592;9.600;2023-05-15T09:48:54;19.70;99.90
20370;DHT22;10344;47.592;9.600;2023-05-15T09:51:20;19.10;99.90
20370;DHT22;10344;47.592;9.600;2023-05-15T09:53:53;18.70;99.90
20370;DHT22;10344;47.592;9.600;2023-05-15T09:56:22;18.40;99.90
20370;DHT22;10344;47.592;9.600;2023-05-15T09:59:16;18.10;99.90
20370;DHT22;10344;47.592;9.600;2023-05-15T10:01:46;17.80;99.90
20370;DHT22;10344;47.592;9.600;2023-05-15T10:04:18;17.60;99.90
20370;DHT22;10344;47.592;9.600;2023-05-15T10:06:49;17.60;99.90
20370;DHT22;10344;47.592;9.600;2023-05-15T10:09:16;17.70;99.90
20370;DHT22;10344;47.592;9.600;2023-05-15T10:11:50;17.80;99.90
20370;DHT22;10344;47.592;9.600;2023-05-15T10:14:28;18.00;99.90
20370;DHT22;10344;47.592;9.600;2023-05-15T10:16:57;18.00;99.90
20370;DHT22;10344;47.592;9.600;2023-05-15T10:19:29;17.90;99.90
20370;DHT22;10344;47.592;9.600;2023-05-15T10:22:05;17.70;99.90
20370;DHT22;10344;47.592;9.600;2023-05-15T10:24:37;17.80;99.90
20370;DHT22;10344;47.592;9.600;2023-05-15T10:27:08;17.90;99.90
20370;DHT22;10344;47.592;9.600;2023-05-15T10:29:38;18.30;99.90
20370;DHT22;10344;47.592;9.600;2023-05-15T10:32:05;18.60;99.90
20370;DHT22;10344;47.592;9.600;2023-05-15T10:34:31;18.70;99.90
20370;DHT22;10344;47.592;9.600;2023-05-15T10:37:01;18.70;99.90
20370;DHT22;10344;47.592;9.600;2023-05-15T10:39:28;18.60;99.90
20370;DHT22;10344;47.592;9.600;2023-05-15T10:41:57;18.20;99.90
20370;DHT22;10344;47.592;9.600;2023-05-15T10:44:30;17.40;99.90
20370;DHT22;10344;47.592;9.600;2023-05-15T10:46:55;16.80;99.90
20370;DHT22;10344;47.592;9.600;2023-05-15T10:49:22;16.60;99.90
20370;DHT22;10344;47.592;9.600;2023-05-15T10:52:02;16.40;99.90
20370;DHT22;10344;47.592;9.600;2023-05-15T10:54:28;16.60;99.90
20370;DHT22;10344;47.592;9.600;2023-05-15T10:57:09;16.80;99.90
20370;DHT22;10344;47.592;9.600;2023-05-15T10:59:40;17.20;99.90
20370;DHT22;10344;47.592;9.600;2023-05-15T11:02:27;17.80;99.90
20370;DHT22;10344;47.592;9.600;2023-05-15T11:05:02;18.50;99.90
20370;DHT22;10344;47.592;9.600;2023-05-15T11:07:30;19.00;99.90
20370;DHT22;10344;47.592;9.600;2023-05-15T11:12:57;20.00;99.90
20370;DHT22;10344;47.592;9.600;2023-05-15T11:15:26;20.00;99.90
20370;DHT22;10344;47.592;9.600;2023-05-15T11:18:05;20.10;99.90
20370;DHT22;10344;47.592;9.600;2023-05-15T11:20:37;20.10;99.90
20370;DHT22;10344;47.592;9.600;2023-05-15T11:23:03;20.20;99.90
20370;DHT22;10344;47.592;9.600;2023-05-15T11:25:29;20.10;99.90
20370;DHT22;10344;47.592;9.600;2023-05-15T11:28:04;19.70;99.90
20370;DHT22;10344;47.592;9.600;2023-05-15T11:30:38;19.40;99.90
20370;DHT22;10344;47.592;9.600;2023-05-15T11:33:28;19.50;99.90
20370;DHT22;10344;47.592;9.600;2023-05-15T11:36:03;19.60;99.90
20370;DHT22;10344;47.592;9.600;2023-05-15T11:38:37;19.80;99.90
20370;DHT22;10344;47.592;9.600;2023-05-15T11:41:16;19.50;99.90
20370;DHT22;10344;47.592;9.600;2023-05-15T11:43:49;19.30;99.90
20370;DHT22;10344;47.592;9.600;2023-05-15T11:46:17;19.50;99.90
20370;DHT22;10344;47.592;9.600;2023-05-15T11:48:51;19.80;99.90
20370;DHT22;10344;47.592;9.600;2023-05-15T11:51:25;20.00;99.90
20370;DHT22;10344;47.592;9.600;2023-05-15T11:53:55;19.80;99.90
20370;DHT22;10344;47.592;9.600;2023-05-15T11:56:26;19.80;99.90
20370;DHT22;10344;47.592;9.600;2023-05-15T11:59:03;19.40;99.90
20370;DHT22;10344;47.592;9.600;2023-05-15T12:01:41;19.60;99.90
20370;DHT22;10344;47.592;9.600;2023-05-15T12:04:17;19.70;99.90
20370;DHT22;10344;47.592;9.600;2023-05-15T12:06:43;19.50;99.90
20370;DHT22;10344;47.592;9.600;2023-05-15T12:09:17;19.70;99.90
20370;DHT22;10344;47.592;9.600;2023-05-15T12:11:52;20.10;99.90
20370;DHT22;10344;47.592;9.600;2023-05-15T12:14:28;20.20;99.90
20370;DHT22;10344;47.592;9.600;2023-05-15T12:17:04;20.60;99.90
20370;DHT22;10344;47.592;9.600;2023-05-15T12:19:33;20.70;99.90
20370;DHT22;10344;47.592;9.600;2023-05-15T12:22:06;20.70;99.90
20370;DHT22;10344;47.592;9.600;2023-05-15T12:24:38;20.90;99.90
20370;DHT22;10344;47.592;9.600;2023-05-15T12:27:05;21.20;99.90
20370;DHT22;10344;47.592;9.600;2023-05-15T12:29:33;21.30;99.90
20370;DHT22;10344;47.592;9.600;2023-05-15T12:32:08;21.30;99.90
20370;DHT22;10344;47.592;9.600;2023-05-15T12:34:37;20.90;99.90
20370;DHT22;10344;47.592;9.600;2023-05-15T12:37:07;20.30;99.90
20370;DHT22;10344;47.592;9.600;2023-05-15T12:42:18;20.10;99.90
20370;DHT22;10344;47.592;9.600;2023-05-15T12:44:54;20.10;99.90
20370;DHT22;10344;47.592;9.600;2023-05-15T12:47:29;20.20;99.90
20370;DHT22;10344;47.592;9.600;2023-05-15T12:50:02;20.20;99.90
20370;DHT22;10344;47.592;9.600;2023-05-15T12:52:39;20.20;99.90
20370;DHT22;10344;47.592;9.600;2023-05-15T12:55:08;20.20;99.90
20370;DHT22;10344;47.592;9.600;2023-05-15T12:57:44;20.10;99.90
20370;DHT22;10344;47.592;9.600;2023-05-15T13:00:17;20.40;99.90
20370;DHT22;10344;47.592;9.600;2023-05-15T13:02:53;20.30;99.90
20370;DHT22;10344;47.592;9.600;2023-05-15T13:05:21;20.20;99.90
20370;DHT22;10344;47.592;9.600;2023-05-15T13:08:02;20.30;99.90
20370;DHT22;10344;47.592;9.600;2023-05-15T13:10:33;20.70;99.90
20370;DHT22;10344;47.592;9.600;2023-05-15T13:13:06;20.80;99.90
20370;DHT22;10344;47.592;9.600;2023-05-15T13:15:43;20.80;99.90
20370;DHT22;10344;47.592;9.600;2023-05-15T13:18:15;20.80;99.90
20370;DHT22;10344;47.592;9.600;2023-05-15T13:20:47;20.30;99.90
20370;DHT22;10344;47.592;9.600;2023-05-15T13:23:22;19.80;99.90
20370;DHT22;10344;47.592;9.600;2023-05-15T13:25:49;19.70;99.90
20370;DHT22;10344;47.592;9.600;2023-05-15T13:28:14;19.90;99.90
20370;DHT22;10344;47.592;9.600;2023-05-15T13:30:41;20.10;99.90
20370;DHT22;10344;47.592;9.600;2023-05-15T13:33:10;20.40;99.90
20370;DHT22;10344;47.592;9.600;2023-05-15T13:35:42;20.70;99.90
20370;DHT22;10344;47.592;9.600;2023-05-15T13:38:10;21.00;99.90
20370;DHT22;10344;47.592;9.600;2023-05-15T13:40:37;20.90;99.90
20370;DHT22;10344;47.592;9.600;2023-05-15T13:43:06;20.90;99.90
20370;DHT22;10344;47.592;9.600;2023-05-15T13:45:34;20.80;99.90
20370;DHT22;10344;47.592;9.600;2023-05-15T13:48:00;21.00;99.90
20370;DHT22;10344;47.592;9.600;2023-05-15T13:50:25;21.40;99.90
20370;DHT22;10344;47.592;9.600;2023-05-15T13:52:54;21.60;99.90
20370;DHT22;10344;47.592;9.600;2023-05-15T13:55:22;21.70;99.90
20370;DHT22;10344;47.592;9.600;2023-05-15T13:57:50;21.90;99.90
20370;DHT22;10344;47.592;9.600;2023-05-15T14:00:21;21.70;99.90
20370;DHT22;10344;47.592;9.600;2023-05-15T14:02:47;21.50;99.90
20370;DHT22;10344;47.592;9.600;2023-05-15T14:05:16;21.50;99.90
20370;DHT22;10344;47.592;9.600;2023-05-15T14:07:41;21.60;99.90
20370;DHT22;10344;47.592;9.600;2023-05-15T14:10:08;21.60;99.90
20370;DHT22;10344;47.592;9.600;2023-05-15T14:12:37;21.60;99.90
20370;DHT22;10344;47.592;9.600;2023-05-15T14:15:04;21.30;99.90
20370;DHT22;10344;47.592;9.600;2023-05-15T14:17:36;21.00;99.90
20370;DHT22;10344;47.592;9.600;2023-05-15T14:20:06;20.80;99.90
20370;DHT22;10344;47.592;9.600;2023-05-15T14:22:36;20.60;99.90
20370;DHT22;10344;47.592;9.600;2023-05-15T14:25:02;20.40;99.90
20370;DHT22;10344;47.592;9.600;2023-05-15T14:27:28;20.30;99.90
20370;DHT22;10344;47.592;9.600;2023-05-15T14:29:54;20.60;99.90
20370;DHT22;10344;47.592;9.600;2023-05-15T14:32:28;21.00;99.90
20370;DHT22;10344;47.592;9.600;2023-05-15T14:34:54;21.30;99.90
20370;DHT22;10344;47.592;9.600;2023-05-15T14:37:26;21.30;99.90
20370;DHT22;10344;47.592;9.600;2023-05-15T14:39:52;21.00;99.90
20370;DHT22;10344;47.592;9.600;2023-05-15T14:42:19;20.70;99.90
20370;DHT22;10344;47.592;9.600;2023-05-15T14:44:45;20.40;99.90
20370;DHT22;10344;47.592;9.600;2023-05-15T14:47:14;20.10;99.90
20370;DHT22;10344;47.592;9.600;2023-05-15T14:49:42;19.50;99.90
20370;DHT22;10344;47.592;9.600;2023-05-15T14:52:13;19.00;99.90
20370;DHT22;10344;47.592;9.600;2023-05-15T14:54:42;18.50;99.90
20370;DHT22;10344;47.592;9.600;2023-05-15T14:57:07;18.10;99.90
20370;DHT22;10344;47.592;9.600;2023-05-15T14:59:33;17.70;99.90
20370;DHT22;10344;47.592;9.600;2023-05-15T15:02:01;17.40;99.90
20370;DHT22;10344;47.592;9.600;2023-05-15T15:04:31;17.10;99.90
20370;DHT22;10344;47.592;9.600;2023-05-15T15:07:02;16.90;99.90
20370;DHT22;10344;47.592;9.600;2023-05-15T15:09:28;16.70;99.90
20370;DHT22;10344;47.592;9.600;2023-05-15T15:11:55;16.50;99.90
20370;DHT22;10344;47.592;9.600;2023-05-15T15:14:22;16.30;99.90
20370;DHT22;10344;47.592;9.600;2023-05-15T15:16:53;16.30;99.90
20370;DHT22;10344;47.592;9.600;2023-05-15T15:19:19;16.20;99.90
20370;DHT22;10344;47.592;9.600;2023-05-15T15:21:45;16.10;99.90
20370;DHT22;10344;47.592;9.600;2023-05-15T15:24:13;16.10;99.90
20370;DHT22;10344;47.592;9.600;2023-05-15T15:26:39;16.00;99.90
20370;DHT22;10344;47.592;9.600;2023-05-15T15:29:07;16.00;99.90
20370;DHT22;10344;47.592;9.600;2023-05-15T15:31:33;16.00;99.90
20370;DHT22;10344;47.592;9.600;2023-05-15T15:34:02;15.80;99.90
20370;DHT22;10344;47.592;9.600;2023-05-15T15:36:28;15.90;99.90
20370;DHT22;10344;47.592;9.600;2023-05-15T15:38:53;15.90;99.90
20370;DHT22;10344;47.592;9.600;2023-05-15T15:41:21;15.90;99.90
20370;DHT22;10344;47.592;9.600;2023-05-15T15:43:48;15.90;99.90
20370;DHT22;10344;47.592;9.600;2023-05-15T15:46:13;16.00;99.90
20370;DHT22;10344;47.592;9.600;2023-05-15T15:48:39;16.10;99.90
20370;DHT22;10344;47.592;9.600;2023-05-15T15:51:06;16.10;99.90
20370;DHT22;10344;47.592;9.600;2023-05-15T15:53:32;16.00;99.90
20370;DHT22;10344;47.592;9.600;2023-05-15T15:56:00;16.10;99.90
20370;DHT22;10344;47.592;9.600;2023-05-15T15:58:25;16.20;99.90
20370;DHT22;10344;47.592;9.600;2023-05-15T16:00:51;16.20;99.90
20370;DHT22;10344;47.592;9.600;2023-05-15T16:03:18;16.30;99.90